EST,Max TemperatureF,Mean TemperatureF,Min TemperatureF,Max Dew PointF,MeanDew PointF,Min DewpointF,Max Humidity, Mean Humidity, Min Humidity, Max Sea Level PressureIn, Mean Sea Level PressureIn, Min Sea Level PressureIn, Max VisibilityMiles, Mean VisibilityMiles, Min VisibilityMiles, Max Wind SpeedMPH, Mean Wind SpeedMPH, Max Gust SpeedMPH,PrecipitationIn, CloudCover, Events, WindDirDegrees
2011-12-1,55,41,27,32,25,21,92,60,28,30.35,30.29,30.14,10,10,10,9,2,13,0.00,0,,344
2011-12-2,61,43,24,31,25,17,100,60,19,30.49,30.39,30.34,10,10,9,10,3,13,0.00,0,,253
2011-12-3,53,43,32,32,29,25,82,63,44,30.65,30.57,30.51,10,10,10,12,4,16,0.00,0,,57
2011-12-4,58,43,27,39,34,26,100,72,43,30.54,30.46,30.38,10,9,6,7,1,10,0.00,1,,230
2011-12-5,63,50,37,57,46,36,93,79,65,30.37,30.25,30.14,10,10,10,9,2,14,T,7,,142
2011-12-6,67,64,60,60,58,57,90,82,73,30.15,30.06,29.93,10,10,7,15,6,21,0.02,8,Rain,198
2011-12-7,65,53,41,61,55,30,93,78,62,29.92,29.69,29.49,10,7,2,28,11,37,0.72,8,Rain,233
2011-12-8,49,39,28,30,24,19,92,62,31,30.33,30.23,29.97,10,10,10,16,3,24,0.00,0,,303
2011-12-9,51,39,27,33,29,26,100,71,42,30.34,30.28,30.22,10,10,10,7,0,,0.00,0,,256
2011-12-10,50,38,26,34,26,19,100,71,42,30.50,30.36,30.24,10,10,10,16,6,23,0.00,0,,334
2011-12-11,43,35,26,21,19,16,75,56,36,30.67,30.58,30.50,10,10,10,15,5,20,0.00,0,,43
2011-12-12,45,36,27,30,25,21,92,70,48,30.59,30.52,30.46,10,10,9,6,1,7,0.00,0,,18
2011-12-13,62,45,27,43,35,26,92,68,43,30.46,30.41,30.35,10,10,10,7,1,7,0.00,2,,106
2011-12-14,55,47,39,39,34,29,83,62,41,30.42,30.36,30.28,10,10,10,6,3,12,0.00,5,,83
2011-12-15,67,50,33,51,45,32,92,72,52,30.27,30.14,30.04,10,10,7,25,9,33,0.00,1,,226
2011-12-16,60,50,40,52,43,35,100,74,47,30.22,30.16,30.04,10,9,4,16,6,18,0.39,6,Rain,17
2011-12-17,46,37,28,37,30,23,100,73,45,30.24,30.19,30.15,10,9,2,14,4,20,0.00,1,,333
2011-12-18,48,37,25,28,25,21,92,67,42,30.33,30.28,30.22,10,10,10,10,2,14,0.00,2,,240
2011-12-19,56,40,23,29,27,22,92,62,32,30.32,30.24,30.17,10,10,10,18,7,24,0.00,0,,221
2011-12-20,57,46,35,51,42,30,93,76,59,30.21,30.14,30.10,10,10,10,10,3,16,0.00,4,,216
2011-12-21,63,57,50,61,56,49,100,92,84,30.10,29.99,29.88,10,9,2,15,8,25,0.19,7,Rain,210
2011-12-22,66,62,58,61,59,57,100,87,73,30.11,30.01,29.83,10,8,1,14,5,22,0.32,8,Rain,199
2011-12-23,64,53,42,59,41,30,90,69,47,30.26,30.08,29.80,10,10,10,23,9,33,T,3,,308
2011-12-24,49,39,29,33,29,25,92,66,39,30.45,30.37,30.26,10,10,10,10,3,14,0.00,0,,313
2011-12-25,49,38,26,37,32,25,100,81,61,30.40,30.27,30.15,10,10,10,13,4,17,0.00,1,,231
2011-12-26,51,40,29,30,27,24,82,59,35,30.38,30.28,30.15,10,10,10,16,4,,0.00,0,,314
2011-12-27,58,46,34,54,41,28,100,82,64,30.21,29.74,29.50,10,8,1,25,8,35,0.55,6,Rain,207
2011-12-28,50,41,31,31,25,20,70,51,32,30.04,29.90,29.67,10,10,10,23,8,32,0.00,2,,269
2011-12-29,51,37,23,28,24,22,88,76,64,30.10,30.06,30.04,10,10,10,12,2,15,0.00,0,,-1
2011-12-30,61,44,27,45,38,26,92,65,37,30.08,29.96,29.89,10,10,10,21,6,30,0.00,4,,208
2011-12-31,61,48,35,47,40,33,100,70,39,30.15,29.98,29.87,10,10,10,18,5,23,T,2,Rain,271